Time,TemperatureF,DewpointF,PressureIn,WindDirection,WindDirectionDegrees,WindSpeedMPH,WindSpeedGustMPH,Humidity,HourlyPrecipIn,Conditions,Clouds,dailyrainin,SolarRadiationWatts/m^2,SoftwareType,DateUTC
2013-09-06 01:25:00,72.4,53.2,29.86,SW,214,1.0,7.0,51,0.00,,,0.00,0,Wunderground v.1.15,2013-09-06 07:25:00,
2013-09-06 01:50:00,71.6,53.6,29.86,SSE,166,0.0,7.0,53,0.00,,,0.00,0,Wunderground v.1.15,2013-09-06 07:50:00,
2013-09-06 04:05:00,65.0,52.5,29.87,SSE,152,0.0,7.0,64,0.00,,,0.00,0,Wunderground v.1.15,2013-09-06 10:05:00,
2013-09-06 04:30:00,64.0,51.6,29.88,SSE,152,0.0,7.0,64,0.00,,,0.00,0,Wunderground v.1.15,2013-09-06 10:30:00,
2013-09-06 04:40:00,64.0,52.4,29.89,SSE,152,0.0,7.0,66,0.00,,,0.00,0,Wunderground v.1.15,2013-09-06 10:40:00,
2013-09-06 05:15:00,63.0,51.9,29.89,SSW,210,1.0,7.0,67,0.00,,,0.00,0,Wunderground v.1.15,2013-09-06 11:15:00,
2013-09-06 05:30:00,62.6,51.5,29.89,SSW,211,0.0,7.0,67,0.00,,,0.00,0,Wunderground v.1.15,2013-09-06 11:30:00,
2013-09-06 05:35:00,62.3,51.2,29.90,SSW,211,0.0,7.0,67,0.00,,,0.00,0,Wunderground v.1.15,2013-09-06 11:35:00,
2013-09-06 06:35:00,60.7,51.2,29.90,SW,217,0.0,7.0,71,0.00,,,0.00,0,Wunderground v.1.15,2013-09-06 12:35:00,
2013-09-06 06:45:00,60.6,51.1,29.90,SW,216,0.0,7.0,71,0.00,,,0.00,0,Wunderground v.1.15,2013-09-06 12:45:00,
2013-09-06 06:55:00,60.3,50.9,29.91,SW,217,0.0,7.0,71,0.00,,,0.00,9,Wunderground v.1.15,2013-09-06 12:55:00,
2013-09-06 07:20:00,60.4,50.6,29.92,SSW,197,0.0,7.0,70,0.00,,,0.00,21,Wunderground v.1.15,2013-09-06 13:20:00,
2013-09-06 07:45:00,60.2,50.4,29.92,SSE,154,1.0,7.0,70,0.00,,,0.00,28,Wunderground v.1.15,2013-09-06 13:45:00,
2013-09-06 07:50:00,60.1,50.7,29.92,South,186,2.0,2.0,71,0.00,,,0.00,30,Wunderground v.1.15,2013-09-06 13:50:00,
2013-09-06 07:55:00,60.2,50.8,29.92,SSE,158,1.0,3.0,71,0.00,,,0.00,32,Wunderground v.1.15,2013-09-06 13:55:00,
2013-09-06 08:15:00,61.0,51.1,29.92,SSE,166,0.0,7.0,70,0.00,,,0.00,186,Wunderground v.1.15,2013-09-06 14:15:00,
2013-09-06 08:25:00,62.3,51.2,29.92,West,262,1.0,7.0,67,0.00,,,0.00,243,Wunderground v.1.15,2013-09-06 14:25:00,
2013-09-06 08:35:00,63.6,51.2,29.91,SE,135,1.0,7.0,64,0.00,,,0.00,278,Wunderground v.1.15,2013-09-06 14:35:00,
2013-09-06 08:40:00,64.2,51.8,29.92,ESE,105,1.0,1.0,64,0.00,,,0.00,294,Wunderground v.1.15,2013-09-06 14:40:00,
2013-09-06 08:50:00,65.5,52.1,29.91,West,265,1.0,1.0,62,0.00,,,0.00,322,Wunderground v.1.15,2013-09-06 14:50:00,
2013-09-06 08:55:00,66.3,52.0,29.91,SSE,167,1.0,7.0,60,0.00,,,0.00,338,Wunderground v.1.15,2013-09-06 14:55:00,
2013-09-06 09:10:00,67.5,52.2,29.91,South,171,0.0,2.0,58,0.00,,,0.00,383,Wunderground v.1.15,2013-09-06 15:10:00,
2013-09-06 09:15:00,67.9,52.6,29.91,SE,135,1.0,2.0,58,0.00,,,0.00,399,Wunderground v.1.15,2013-09-06 15:15:00,
2013-09-06 09:30:00,68.8,52.0,29.91,ESE,102,1.0,1.0,55,0.00,,,0.00,439,Wunderground v.1.15,2013-09-06 15:30:00,
2013-09-06 09:35:00,69.3,52.4,29.91,ENE,73,1.0,1.0,55,0.00,,,0.00,452,Wunderground v.1.15,2013-09-06 15:35:00,
2013-09-06 09:40:00,70.0,52.6,29.91,ENE,75,0.0,1.0,54,0.00,,,0.00,469,Wunderground v.1.15,2013-09-06 15:40:00,
2013-09-06 09:50:00,70.5,52.0,29.90,ENE,70,0.0,0.0,52,0.00,,,0.00,496,Wunderground v.1.15,2013-09-06 15:50:00,
2013-09-06 10:05:00,71.8,51.6,29.90,East,91,0.0,0.0,49,0.00,,,0.00,536,Wunderground v.1.15,2013-09-06 16:05:00,
2013-09-06 10:10:00,72.2,52.5,29.90,SE,138,0.0,1.0,50,0.00,,,0.00,547,Wunderground v.1.15,2013-09-06 16:10:00,
2013-09-06 10:15:00,72.4,51.0,29.90,SE,132,1.0,1.0,47,0.00,,,0.00,559,Wunderground v.1.15,2013-09-06 16:15:00,
2013-09-06 10:25:00,73.4,51.4,29.89,SE,145,1.0,1.0,46,0.00,,,0.00,585,Wunderground v.1.15,2013-09-06 16:25:00,
2013-09-06 10:30:00,73.7,51.6,29.89,SE,133,1.0,1.0,46,0.00,,,0.00,599,Wunderground v.1.15,2013-09-06 16:30:00,
2013-09-06 10:35:00,74.2,51.5,29.88,SE,134,1.0,1.0,45,0.00,,,0.00,612,Wunderground v.1.15,2013-09-06 16:35:00,
2013-09-06 10:45:00,74.7,51.9,29.88,ENE,75,1.0,1.0,45,0.00,,,0.00,635,Wunderground v.1.15,2013-09-06 16:45:00,
2013-09-06 10:50:00,76.1,53.2,29.87,SE,129,0.0,0.0,45,0.00,,,0.00,645,Wunderground v.1.15,2013-09-06 16:50:00,
2013-09-06 11:00:00,77.2,51.7,29.86,SE,140,0.0,0.0,41,0.00,,,0.00,666,Wunderground v.1.15,2013-09-06 17:00:00,
2013-09-06 11:20:00,78.9,52.5,29.85,South,170,1.0,2.0,40,0.00,,,0.00,710,Wunderground v.1.15,2013-09-06 17:20:00,
2013-09-06 11:35:00,79.4,51.6,29.83,SE,129,1.0,1.0,38,0.00,,,0.00,733,Wunderground v.1.15,2013-09-06 17:35:00,
2013-09-06 11:50:00,80.3,53.1,29.82,WSW,241,1.0,3.0,39,0.00,,,0.00,758,Wunderground v.1.15,2013-09-06 17:50:00,
2013-09-06 12:00:00,81.4,50.3,29.82,SSW,199,2.0,2.0,34,0.00,,,0.00,766,Wunderground v.1.15,2013-09-06 18:00:00,
2013-09-06 12:15:00,83.1,50.2,29.81,SE,137,1.0,2.0,32,0.00,,,0.00,788,Wunderground v.1.15,2013-09-06 18:15:00,
2013-09-06 12:25:00,83.5,49.7,29.80,ESE,116,0.0,1.0,31,0.00,,,0.00,800,Wunderground v.1.15,2013-09-06 18:25:00,
2013-09-06 12:30:00,83.7,50.7,29.80,ESE,116,0.0,1.0,32,0.00,,,0.00,803,Wunderground v.1.15,2013-09-06 18:30:00,
2013-09-06 12:35:00,85.0,49.2,29.79,SE,145,0.0,1.0,29,0.00,,,0.00,810,Wunderground v.1.15,2013-09-06 18:35:00,
2013-09-06 12:55:00,86.1,47.2,29.77,SW,224,0.0,1.0,26,0.00,,,0.00,819,Wunderground v.1.15,2013-09-06 18:55:00,
2013-09-06 13:00:00,87.1,48.1,29.77,SE,141,0.0,2.0,26,0.00,,,0.00,823,Wunderground v.1.15,2013-09-06 19:00:00,
2013-09-06 13:15:00,87.8,45.4,29.76,South,187,0.0,0.0,23,0.00,,,0.00,830,Wunderground v.1.15,2013-09-06 19:15:00,
2013-09-06 13:25:00,88.2,43.3,29.75,SW,230,1.0,4.0,21,0.00,,,0.00,831,Wunderground v.1.15,2013-09-06 19:25:00,
2013-09-06 13:45:00,89.2,44.2,29.74,SW,226,1.0,1.0,21,0.00,,,0.00,828,Wunderground v.1.15,2013-09-06 19:45:00,
2013-09-06 13:50:00,89.7,44.6,29.74,SSE,154,1.0,2.0,21,0.00,,,0.00,831,Wunderground v.1.15,2013-09-06 19:50:00,
2013-09-06 14:00:00,90.7,42.8,29.73,SE,137,0.0,0.0,19,0.00,,,0.00,817,Wunderground v.1.15,2013-09-06 20:00:00,
2013-09-06 14:05:00,91.2,43.2,29.73,SE,127,1.0,2.0,19,0.00,,,0.00,812,Wunderground v.1.15,2013-09-06 20:05:00,
2013-09-06 14:10:00,90.2,42.4,29.72,SE,128,1.0,1.0,19,0.00,,,0.00,805,Wunderground v.1.15,2013-09-06 20:10:00,
2013-09-06 14:25:00,90.0,44.8,29.72,SE,143,3.0,3.0,21,0.00,,,0.00,788,Wunderground v.1.15,2013-09-06 20:25:00,
2013-09-06 14:40:00,90.6,44.0,29.70,SW,220,1.0,1.0,20,0.00,,,0.00,770,Wunderground v.1.15,2013-09-06 20:40:00,
2013-09-06 14:45:00,91.4,44.7,29.70,WSW,245,1.0,6.0,20,0.00,,,0.00,770,Wunderground v.1.15,2013-09-06 20:45:00,
2013-09-06 14:50:00,91.0,41.6,29.69,NE,39,1.0,1.0,18,0.00,,,0.00,761,Wunderground v.1.15,2013-09-06 20:50:00,
2013-09-06 15:10:00,91.7,43.6,29.68,SW,220,3.0,3.0,19,0.00,,,0.00,719,Wunderground v.1.15,2013-09-06 21:10:00,
2013-09-06 15:30:00,91.4,43.3,29.67,SW,236,5.0,9.0,19,0.00,,,0.00,680,Wunderground v.1.15,2013-09-06 21:30:00,
2013-09-06 15:45:00,91.7,40.7,29.66,WSW,250,4.0,4.0,17,0.00,,,0.00,654,Wunderground v.1.15,2013-09-06 21:45:00,
2013-09-06 15:55:00,91.2,41.8,29.66,SSW,197,5.0,9.0,18,0.00,,,0.00,645,Wunderground v.1.15,2013-09-06 21:55:00,
2013-09-06 16:10:00,90.8,40.0,29.65,South,186,7.0,7.0,17,0.00,,,0.00,552,Wunderground v.1.15,2013-09-06 22:10:00,
2013-09-06 16:20:00,90.9,41.5,29.65,SW,227,6.0,8.0,18,0.00,,,0.00,156,Wunderground v.1.15,2013-09-06 22:20:00,
2013-09-06 16:30:00,90.2,41.0,29.66,SW,236,5.0,5.0,18,0.00,,,0.00,318,Wunderground v.1.15,2013-09-06 22:30:00,
2013-09-06 16:45:00,91.2,41.8,29.66,South,186,5.0,5.0,18,0.00,,,0.00,234,Wunderground v.1.15,2013-09-06 22:45:00,
2013-09-06 16:55:00,91.4,41.9,29.66,SW,228,2.0,7.0,18,0.00,,,0.00,176,Wunderground v.1.15,2013-09-06 22:55:00,
2013-09-06 17:00:00,90.9,41.5,29.66,SW,231,3.0,3.0,18,0.00,,,0.00,146,Wunderground v.1.15,2013-09-06 23:00:00,
2013-09-06 17:25:00,83.0,47.5,29.74,WSW,253,6.0,6.0,29,0.00,,,0.00,72,Wunderground v.1.15,2013-09-06 23:25:00,
2013-09-06 18:15:00,78.0,50.3,29.75,SW,228,3.0,7.0,38,0.00,,,0.00,105,Wunderground v.1.15,2013-09-07 00:15:00,
2013-09-06 18:25:00,77.7,50.1,29.75,South,169,4.0,4.0,38,0.00,,,0.00,137,Wunderground v.1.15,2013-09-07 00:25:00,
2013-09-06 18:40:00,77.6,50.0,29.74,South,176,2.0,2.0,38,0.00,,,0.00,107,Wunderground v.1.15,2013-09-07 00:40:00,
2013-09-06 18:45:00,77.4,50.5,29.74,SSE,149,2.0,5.0,39,0.00,,,0.00,88,Wunderground v.1.15,2013-09-07 00:45:00,
2013-09-06 19:10:00,78.5,47.8,29.74,East,91,7.0,8.0,34,0.00,,,0.00,30,Wunderground v.1.15,2013-09-07 01:10:00,
2013-09-06 21:15:00,73.0,51.6,29.82,East,88,9.0,9.0,47,0.00,,,0.00,0,Wunderground v.1.15,2013-09-07 03:15:00,
2013-09-06 21:50:00,71.2,52.1,29.84,NE,50,7.0,7.0,51,0.00,,,0.00,0,Wunderground v.1.15,2013-09-07 03:50:00,
2013-09-06 22:20:00,71.2,51.6,29.80,East,101,8.0,14.0,50,0.00,,,0.00,0,Wunderground v.1.15,2013-09-07 04:20:00,
2013-09-06 22:50:00,70.4,53.0,29.82,East,87,5.0,6.0,54,0.00,,,0.00,0,Wunderground v.1.15,2013-09-07 04:50:00,
2013-09-06 23:00:00,70.4,52.4,29.82,SE,133,6.0,6.0,53,0.00,,,0.00,0,Wunderground v.1.15,2013-09-07 05:00:00,